Time;durP1;ratioP1;P1;durP2;ratioP2;P2;SDS_P1;SDS_P2;PMS_P1;PMS_P2;Temp;Humidity;BMP_temperature;BMP_pressure;BME280_temperature;BME280_humidity;BME280_pressure;Samples;Min_cycle;Max_cycle;Signal;HPM_P1;HPM_P2
2022/01/29 00:01:52;;;;;;;;;;;;;;;;;;5076908;28;19919;-86
2022/01/29 00:04:17;;;;;;;;;;;;;;;;;;5094705;28;19994;-85
2022/01/29 00:06:42;;;;;;;;;;;;;;;;;;5076853;28;19954;-85
2022/01/29 00:09:08;;;;;;;;;;;;;;;;;;5076828;28;19962;-86
2022/01/29 00:11:35;;;;;;;;;;;;;;;;;;5076652;28;19908;-85
2022/01/29 00:14:00;;;;;;;;;;;;;;;;;;5093086;28;19935;-86
2022/01/29 00:16:25;;;;;;;;;;;;;;;;;;5076622;28;19912;-85
2022/01/29 00:18:51;;;;;;;;;;;;;;;;;;5095062;28;19908;-85
2022/01/29 00:21:16;;;;;;;;;;;;;;;;;;5095409;28;19920;-86
2022/01/29 00:23:41;;;;;;;;;;;;;;;;;;5076412;28;20429;-85
2022/01/29 00:26:06;;;;;;;;;;;;;;;;;;5094590;28;19912;-86
2022/01/29 00:28:34;;;;;;;;;;;;;;;;;;5076331;28;19912;-85
2022/01/29 00:30:59;;;;;;;;;;;;;;;;;;5059894;28;19912;-85
2022/01/29 00:33:24;;;;;;;;;;;;;;;;;;5074246;28;19924;-85
2022/01/29 00:35:49;;;;;;;;;;;;;;;;;;5074346;28;19919;-85
2022/01/29 00:38:14;;;;;;;;;;;;;;;;;;5089833;28;19908;-85
2022/01/29 00:40:40;;;;;;;;;;;;;;;;;;5089712;28;19908;-85
2022/01/29 00:43:05;;;;;;;;;;;;;;;;;;5091505;28;19987;-86
2022/01/29 00:45:31;;;;;;;;;;;;;;;;;;5094303;28;19911;-86
2022/01/29 00:47:56;;;;;;;;;;;;;;;;;;5094318;28;19916;-86
2022/01/29 00:50:21;;;;;;;;;;;;;;;;;;5076211;28;20357;-85
2022/01/29 00:52:47;;;;;;;;;;;;;;;;;;5076318;28;19912;-86
2022/01/29 00:55:12;;;;;;;;;;;;;;;;;;5076096;28;19920;-85
2022/01/29 00:57:39;;;;;;;;;;;;;;;;;;5094115;28;19961;-86
2022/01/29 01:00:04;;;;;;;;;;;;;;;;;;5075504;28;19912;-85
2022/01/29 01:02:29;;;;;;;;;;;;;;;;;;5075922;28;19915;-86
2022/01/29 01:04:54;;;;;;;;;;;;;;;;;;5075977;28;20321;-86
2022/01/29 01:07:19;;;;;;;;;;;;;;;;;;5075633;28;19962;-86
2022/01/29 01:09:44;;;;;;;;;;;;;;;;;;5075667;28;19908;-86
2022/01/29 01:12:09;;;;;;;;;;;;;;;;;;5075760;28;19908;-85
2022/01/29 01:14:35;;;;;;;;;;;;;;;;;;5075397;28;19916;-86
2022/01/29 01:17:00;;;;;;;;;;;;;;;;;;5075690;28;20261;-86
2022/01/29 01:19:25;;;;;;;;;;;;;;;;;;5075484;28;19908;-86
2022/01/29 01:21:50;;;;;;;;;;;;;;;;;;5075385;28;20607;-86
2022/01/29 01:24:15;;;;;;;;;;;;;;;;;;5075321;28;19916;-86
2022/01/29 01:26:42;;;;;;;;;;;;;;;;;;5093026;28;19915;-86
2022/01/29 01:29:07;;;;;;;;;;;;;;;;;;5075487;28;19908;-85
2022/01/29 01:31:32;;;;;;;;;;;;;;;;;;5075345;28;20279;-86
2022/01/29 01:33:58;;;;;;;;;;;;;;;;;;5075248;28;19916;-86
2022/01/29 01:36:26;;;;;;;;;;;;;;;;;;5075345;28;20743;-86
2022/01/29 01:39:02;;;;;;;;;;;;;;;;;;5093495;28;19952;-86
2022/01/29 01:41:28;;;;;;;;;;;;;;;;;;5075505;28;19908;-85
2022/01/29 01:43:53;;;;;;;;;;;;;;;;;;5074513;28;19994;-86
2022/01/29 01:46:18;;;;;;;;;;;;;;;;;;5073446;28;20011;-86
2022/01/29 01:48:43;;;;;;;;;;;;;;;;;;5092019;28;20248;-85
2022/01/29 01:51:08;;;;;;;;;;;;;;;;;;5074249;28;19936;-86
2022/01/29 01:53:33;;;;;;;;;;;;;;;;;;5074263;28;19999;-86
2022/01/29 01:55:58;;;;;;;;;;;;;;;;;;5091778;28;19923;-86
2022/01/29 01:58:24;;;;;;;;;;;;;;;;;;5092342;28;19990;-85
2022/01/29 02:00:49;;;;;;;;;;;;;;;;;;5073573;28;19919;-85
2022/01/29 02:03:14;;;;;;;;;;;;;;;;;;5093115;28;19915;-86
2022/01/29 02:05:39;;;;;;;;;;;;;;;;;;5070622;28;19909;-86
2022/01/29 02:08:04;;;;;;;;;;;;;;;;;;5071797;28;20261;-85
2022/01/29 02:10:30;;;;;;;;;;;;;;;;;;5058541;28;19913;-86
2022/01/29 02:13:02;;;;;;;;;;;;;;;;;;5088741;28;19913;-85
2022/01/29 02:15:27;;;;;;;;;;;;;;;;;;5090363;28;19924;-85
2022/01/29 02:17:52;;;;;;;;;;;;;;;;;;5074865;28;19908;-85
2022/01/29 02:20:17;;;;;;;;;;;;;;;;;;5074364;28;19943;-86
2022/01/29 02:22:42;;;;;;;;;;;;;;;;;;5074869;28;19912;-85
2022/01/29 02:25:07;;;;;;;;;;;;;;;;;;5075037;28;19909;-86
2022/01/29 02:27:32;;;;;;;;;;;;;;;;;;5075062;28;19930;-85
2022/01/29 02:29:59;;;;;;;;;;;;;;;;;;5093037;28;20275;-86
2022/01/29 02:32:24;;;;;;;;;;;;;;;;;;5074857;28;19908;-85
2022/01/29 02:34:49;;;;;;;;;;;;;;;;;;5074776;28;19923;-86
2022/01/29 02:37:14;;;;;;;;;;;;;;;;;;5074828;28;19919;-86
2022/01/29 02:39:39;;;;;;;;;;;;;;;;;;5078798;28;19912;-85
2022/01/29 02:42:05;;;;;;;;;;;;;;;;;;5078583;28;19919;-85
2022/01/29 02:44:31;;;;;;;;;;;;;;;;;;5097090;28;20344;-86
2022/01/29 02:47:08;;;;;;;;;;;;;;;;;;5096564;28;19919;-86
2022/01/29 02:49:33;;;;;;;;;;;;;;;;;;5096506;28;19908;-86
2022/01/29 02:51:59;;;;;;;;;;;;;;;;;;5096663;28;19974;-86
2022/01/29 02:54:24;;;;;;;;;;;;;;;;;;5078293;28;19937;-86
2022/01/29 02:56:49;;;;;;;;;;;;;;;;;;5077996;28;19912;-86
2022/01/29 02:59:14;;;;;;;;;;;;;;;;;;5078237;28;20274;-85
2022/01/29 03:01:39;;;;;;;;;;;;;;;;;;5078217;28;20414;-85
2022/01/29 03:04:04;;;;;;;;;;;;;;;;;;5078159;28;20002;-85
2022/01/29 03:06:30;;;;;;;;;;;;;;;;;;5077978;28;19919;-86
2022/01/29 03:08:55;;;;;;;;;;;;;;;;;;5078173;28;20360;-86
2022/01/29 03:11:20;;;;;;;;;;;;;;;;;;5077421;28;19912;-85
2022/01/29 03:13:45;;;;;;;;;;;;;;;;;;5076510;28;19912;-86
2022/01/29 03:16:10;;;;;;;;;;;;;;;;;;5091327;28;19913;-86
2022/01/29 03:18:35;;;;;;;;;;;;;;;;;;5074934;28;19936;-86
2022/01/29 03:21:00;;;;;;;;;;;;;;;;;;5057740;28;20279;-86
2022/01/29 03:23:25;;;;;;;;;;;;;;;;;;5057707;28;19954;-86
2022/01/29 03:25:51;;;;;;;;;;;;;;;;;;5057469;28;19908;-86
2022/01/29 03:28:16;;;;;;;;;;;;;;;;;;5057553;28;19912;-86
2022/01/29 03:30:41;;;;;;;;;;;;;;;;;;5057509;28;19908;-86
2022/01/29 03:33:06;;;;;;;;;;;;;;;;;;5057563;28;20081;-86
2022/01/29 03:35:31;;;;;;;;;;;;;;;;;;5057570;28;19916;-86
2022/01/29 03:37:56;;;;;;;;;;;;;;;;;;5090987;28;20271;-86
2022/01/29 03:40:21;;;;;;;;;;;;;;;;;;5095628;28;19915;-86
2022/01/29 03:42:59;;;;;;;;;;;;;;;;;;5077376;28;19916;-86
2022/01/29 03:45:24;;;;;;;;;;;;;;;;;;5077255;28;20725;-86
2022/01/29 03:47:49;;;;;;;;;;;;;;;;;;5077356;28;20364;-86
2022/01/29 03:50:14;;;;;;;;;;;;;;;;;;5095353;28;19990;-85
2022/01/29 03:52:40;;;;;;;;;;;;;;;;;;5075668;28;20002;-86
2022/01/29 03:55:05;;;;;;;;;;;;;;;;;;5077046;28;19912;-86
2022/01/29 03:57:30;;;;;;;;;;;;;;;;;;5077305;28;19908;-86
2022/01/29 03:59:55;;;;;;;;;;;;;;;;;;5076914;28;19919;-86
2022/01/29 04:02:20;;;;;;;;;;;;;;;;;;5095551;28;19912;-86
2022/01/29 04:04:45;;;;;;;;;;;;;;;;;;5095181;28;19916;-86
2022/01/29 04:07:12;;;;;;;;;;;;;;;;;;5077188;28;19915;-87
2022/01/29 04:09:37;;;;;;;;;;;;;;;;;;5095148;28;19960;-85
2022/01/29 04:12:02;;;;;;;;;;;;;;;;;;5083997;28;19917;-86
2022/01/29 04:14:33;;;;;;;;;;;;;;;;;;5074662;28;19997;-86
2022/01/29 04:16:58;;;;;;;;;;;;;;;;;;5074378;28;19915;-86
2022/01/29 04:19:23;;;;;;;;;;;;;;;;;;5090535;28;19908;-86
2022/01/29 04:21:48;;;;;;;;;;;;;;;;;;5090513;28;20318;-86
2022/01/29 04:24:13;;;;;;;;;;;;;;;;;;5090461;28;19908;-86
2022/01/29 04:26:39;;;;;;;;;;;;;;;;;;5074466;28;19909;-86
2022/01/29 04:29:06;;;;;;;;;;;;;;;;;;5090347;28;19959;-86
2022/01/29 04:31:40;;;;;;;;;;;;;;;;;;5089926;28;19923;-86
2022/01/29 04:34:05;;;;;;;;;;;;;;;;;;5089842;28;19931;-86
2022/01/29 04:36:30;;;;;;;;;;;;;;;;;;5089740;28;19908;-86
2022/01/29 04:38:55;;;;;;;;;;;;;;;;;;5091759;28;19965;-86
2022/01/29 04:41:21;;;;;;;;;;;;;;;;;;5076408;28;20359;-86
2022/01/29 04:43:47;;;;;;;;;;;;;;;;;;5076257;28;19920;-86
2022/01/29 04:46:12;;;;;;;;;;;;;;;;;;5094130;28;19908;-86
2022/01/29 04:48:37;;;;;;;;;;;;;;;;;;5076083;28;19912;-86
2022/01/29 04:51:02;;;;;;;;;;;;;;;;;;5076272;28;19915;-86
2022/01/29 04:53:27;;;;;;;;;;;;;;;;;;5076187;28;19912;-86
2022/01/29 04:55:52;;;;;;;;;;;;;;;;;;5075788;28;19916;-86
2022/01/29 04:58:17;;;;;;;;;;;;;;;;;;5076017;28;20284;-86
2022/01/29 05:00:42;;;;;;;;;;;;;;;;;;5075490;28;19912;-86
2022/01/29 05:03:07;;;;;;;;;;;;;;;;;;5075837;28;19955;-86
2022/01/29 05:05:33;;;;;;;;;;;;;;;;;;5076043;28;19999;-86
2022/01/29 05:07:58;;;;;;;;;;;;;;;;;;5094555;28;19908;-86
2022/01/29 05:10:23;;;;;;;;;;;;;;;;;;5075916;28;19908;-87
2022/01/29 05:13:07;;;;;;;;;;;;;;;;;;5075657;28;20363;-87
2022/01/29 05:16:00;;;;;;;;;;;;;;;;;;5093619;28;19912;-86
2022/01/29 05:26:59;;;;;;;;;;;;;;;;;;5092979;28;19973;-86
2022/01/29 05:29:28;;;;;;;;;;;;;;;;;;5073717;28;20764;-86
2022/01/29 05:31:53;;;;;;;;;;;;;;;;;;5055508;28;19909;-86
2022/01/29 05:34:19;;;;;;;;;;;;;;;;;;5055447;28;19927;-86
2022/01/29 05:36:44;;;;;;;;;;;;;;;;;;5055629;28;20384;-86
2022/01/29 05:39:09;;;;;;;;;;;;;;;;;;5073315;28;19956;-86
2022/01/29 05:41:34;;;;;;;;;;;;;;;;;;5073171;28;19991;-86
2022/01/29 05:43:59;;;;;;;;;;;;;;;;;;5073452;28;19922;-86
2022/01/29 05:46:24;;;;;;;;;;;;;;;;;;5073054;28;19908;-86
2022/01/29 05:48:49;;;;;;;;;;;;;;;;;;5073355;28;20360;-86
2022/01/29 05:51:14;;;;;;;;;;;;;;;;;;5055513;28;19912;-86
2022/01/29 05:53:40;;;;;;;;;;;;;;;;;;5073211;28;19913;-86
2022/01/29 05:56:05;;;;;;;;;;;;;;;;;;5065472;28;19923;-86
2022/01/29 05:58:30;;;;;;;;;;;;;;;;;;5075298;28;19908;-85
2022/01/29 06:00:55;;;;;;;;;;;;;;;;;;5092916;28;19912;-86
2022/01/29 06:03:20;;;;;;;;;;;;;;;;;;5075342;28;19908;-86
2022/01/29 06:05:45;;;;;;;;;;;;;;;;;;5075098;28;19942;-86
2022/01/29 06:08:10;;;;;;;;;;;;;;;;;;5075263;28;19908;-86
2022/01/29 06:10:35;;;;;;;;;;;;;;;;;;5093454;28;19908;-86
2022/01/29 06:13:00;;;;;;;;;;;;;;;;;;5078679;28;20287;-86
2022/01/29 06:15:25;;;;;;;;;;;;;;;;;;5078690;28;20356;-86
2022/01/29 06:17:51;;;;;;;;;;;;;;;;;;5079201;28;20343;-86
2022/01/29 06:20:16;;;;;;;;;;;;;;;;;;5078518;28;19919;-86
2022/01/29 06:22:41;;;;;;;;;;;;;;;;;;5096891;28;19915;-86
2022/01/29 06:25:06;;;;;;;;;;;;;;;;;;5078916;28;19916;-87
2022/01/29 06:27:31;;;;;;;;;;;;;;;;;;5097051;28;19914;-86
2022/01/29 06:29:56;;;;;;;;;;;;;;;;;;5097127;28;19961;-86
2022/01/29 06:32:21;;;;;;;;;;;;;;;;;;5097080;28;19915;-86
2022/01/29 06:34:46;;;;;;;;;;;;;;;;;;5096447;28;20015;-86
2022/01/29 06:37:11;;;;;;;;;;;;;;;;;;5096713;28;19962;-86
2022/01/29 06:39:36;;;;;;;;;;;;;;;;;;5078700;28;19912;-85
2022/01/29 06:42:01;;;;;;;;;;;;;;;;;;5078593;28;20356;-86
2022/01/29 06:44:27;;;;;;;;;;;;;;;;;;5078688;28;19944;-86
2022/01/29 06:46:52;;;;;;;;;;;;;;;;;;5078532;28;19959;-86
2022/01/29 06:49:17;;;;;;;;;;;;;;;;;;5078371;28;20010;-86
2022/01/29 06:51:42;;;;;;;;;;;;;;;;;;5096296;28;19912;-86
2022/01/29 06:54:07;;;;;;;;;;;;;;;;;;5078510;28;20354;-86
2022/01/29 06:56:32;;;;;;;;;;;;;;;;;;5078391;28;20287;-86
2022/01/29 06:58:57;;;;;;;;;;;;;;;;;;5096539;28;19910;-86
2022/01/29 07:01:22;;;;;;;;;;;;;;;;;;5096120;28;20256;-85
2022/01/29 07:03:47;;;;;;;;;;;;;;;;;;5078386;28;19961;-86
2022/01/29 07:06:13;;;;;;;;;;;;;;;;;;5095978;28;19920;-85
2022/01/29 07:08:39;;;;;;;;;;;;;;;;;;5094072;28;20029;-86
2022/01/29 07:11:04;;;;;;;;;;;;;;;;;;5077617;28;19912;-85
2022/01/29 07:13:29;;;;;;;;;;;;;;;;;;5077801;28;20264;-85
2022/01/29 07:15:54;;;;;;;;;;;;;;;;;;5077740;28;19918;-84
2022/01/29 07:18:19;;;;;;;;;;;;;;;;;;5074672;28;19966;-85
2022/01/29 07:20:46;;;;;;;;;;;;;;;;;;5093348;28;19915;-85
2022/01/29 07:23:11;;;;;;;;;;;;;;;;;;5095013;28;19912;-85
2022/01/29 07:25:36;;;;;;;;;;;;;;;;;;5076335;28;19931;-85
2022/01/29 07:28:02;;;;;;;;;;;;;;;;;;5077431;28;19919;-85
2022/01/29 07:30:27;;;;;;;;;;;;;;;;;;5077007;28;19938;-85
2022/01/29 07:32:52;;;;;;;;;;;;;;;;;;5077726;28;20398;-85
2022/01/29 07:35:17;;;;;;;;;;;;;;;;;;5077057;28;19957;-85
2022/01/29 07:37:42;;;;;;;;;;;;;;;;;;5075793;28;19912;-85
2022/01/29 07:40:07;;;;;;;;;;;;;;;;;;5063666;28;19943;-85
2022/01/29 07:42:32;;;;;;;;;;;;;;;;;;5077269;28;19920;-85
2022/01/29 07:44:57;;;;;;;;;;;;;;;;;;5077373;28;19952;-85
2022/01/29 07:47:22;;;;;;;;;;;;;;;;;;5075836;28;20006;-85
2022/01/29 07:49:47;;;;;;;;;;;;;;;;;;5079462;28;19918;-85
2022/01/29 07:52:13;;;;;;;;;;;;;;;;;;5086022;28;19920;-85
2022/01/29 07:54:38;;;;;;;;;;;;;;;;;;5079623;28;20018;-85
2022/01/29 07:57:03;;;;;;;;;;;;;;;;;;5084046;28;20003;-85
2022/01/29 07:59:28;;;;;;;;;;;;;;;;;;5098712;28;19919;-85
2022/01/29 08:01:53;;;;;;;;;;;;;;;;;;5077538;28;20314;-85
2022/01/29 08:04:22;;;;;;;;;;;;;;;;;;5092564;28;19946;-85
2022/01/29 08:06:48;;;;;;;;;;;;;;;;;;5079640;28;20291;-85
2022/01/29 08:09:13;;;;;;;;;;;;;;;;;;5076091;28;19916;-86
2022/01/29 08:11:38;;;;;;;;;;;;;;;;;;5076870;28;19961;-86
2022/01/29 08:14:03;;;;;;;;;;;;;;;;;;5094029;28;19923;-86
2022/01/29 08:16:28;;;;;;;;;;;;;;;;;;5074764;28;19919;-87
2022/01/29 08:18:53;;;;;;;;;;;;;;;;;;5057155;28;19995;-86
2022/01/29 08:21:18;;;;;;;;;;;;;;;;;;5073879;28;20003;-86
2022/01/29 08:23:43;;;;;;;;;;;;;;;;;;5076822;28;19908;-87
2022/01/29 08:26:09;;;;;;;;;;;;;;;;;;5076214;28;20390;-86
2022/01/29 08:28:34;;;;;;;;;;;;;;;;;;5076881;28;19917;-86
2022/01/29 08:30:59;;;;;;;;;;;;;;;;;;5076211;28;19965;-87
2022/01/29 08:33:24;;;;;;;;;;;;;;;;;;5076566;28;20661;-86
2022/01/29 08:35:49;;;;;;;;;;;;;;;;;;5076006;28;20006;-87
2022/01/29 08:38:14;;;;;;;;;;;;;;;;;;5094836;28;19919;-87
2022/01/29 08:40:39;;;;;;;;;;;;;;;;;;5076591;28;19908;-87
2022/01/29 08:43:05;;;;;;;;;;;;;;;;;;5076465;28;19908;-87
2022/01/29 08:45:30;;;;;;;;;;;;;;;;;;5094772;28;19931;-87
2022/01/29 08:47:55;;;;;;;;;;;;;;;;;;5076456;28;19908;-86
2022/01/29 08:50:20;;;;;;;;;;;;;;;;;;5076264;28;19908;-87
2022/01/29 08:52:45;;;;;;;;;;;;;;;;;;5076280;28;19908;-86
2022/01/29 08:55:10;;;;;;;;;;;;;;;;;;5076004;28;20356;-87
2022/01/29 08:57:35;;;;;;;;;;;;;;;;;;5094241;28;19912;-86
2022/01/29 09:00:00;;;;;;;;;;;;;;;;;;5075982;28;20356;-86
2022/01/29 09:02:25;;;;;;;;;;;;;;;;;;5076168;28;19924;-87
2022/01/29 09:04:52;;;;;;;;;;;;;;;;;;5076107;28;19912;-86
2022/01/29 09:07:17;;;;;;;;;;;;;;;;;;5076238;28;19912;-86
2022/01/29 09:09:44;;;;;;;;;;;;;;;;;;5076267;28;19908;-87
2022/01/29 09:12:09;;;;;;;;;;;;;;;;;;5076141;28;19908;-86
2022/01/29 09:14:35;;;;;;;;;;;;;;;;;;5075795;28;19919;-87
2022/01/29 09:17:00;;;;;;;;;;;;;;;;;;5076033;28;19915;-86
2022/01/29 09:19:25;;;;;;;;;;;;;;;;;;5075727;28;19965;-86
2022/01/29 09:21:50;;;;;;;;;;;;;;;;;;5075992;28;19915;-87
2022/01/29 09:24:15;;;;;;;;;;;;;;;;;;5093980;28;19908;-87
2022/01/29 09:26:40;;;;;;;;;;;;;;;;;;5075862;28;19909;-87
2022/01/29 09:29:05;;;;;;;;;;;;;;;;;;5094132;28;19912;-87
2022/01/29 09:31:30;;;;;;;;;;;;;;;;;;5075636;28;20371;-86
2022/01/29 09:33:57;;;;;;;;;;;;;;;;;;5093750;28;19927;-87
2022/01/29 09:36:22;;;;;;;;;;;;;;;;;;5075975;28;20042;-86
2022/01/29 09:38:47;;;;;;;;;;;;;;;;;;5094038;28;19955;-87
2022/01/29 09:41:12;;;;;;;;;;;;;;;;;;5075911;28;19912;-87
2022/01/29 09:43:37;;;;;;;;;;;;;;;;;;5093647;28;19908;-87
2022/01/29 09:46:02;;;;;;;;;;;;;;;;;;5075512;28;20382;-87
2022/01/29 09:48:28;;;;;;;;;;;;;;;;;;5075700;28;20551;-87
2022/01/29 09:50:53;;;;;;;;;;;;;;;;;;5093373;28;19927;-87
2022/01/29 09:53:18;;;;;;;;;;;;;;;;;;5075761;28;20066;-86
2022/01/29 09:55:43;;;;;;;;;;;;;;;;;;5075452;28;19961;-87
2022/01/29 09:58:09;;;;;;;;;;;;;;;;;;5093576;28;20399;-86
2022/01/29 10:00:34;;;;;;;;;;;;;;;;;;5093565;28;20289;-87
2022/01/29 10:02:59;;;;;;;;;;;;;;;;;;5093839;28;19908;-87
2022/01/29 10:05:24;;;;;;;;;;;;;;;;;;5075463;28;19908;-87
2022/01/29 10:07:49;;;;;;;;;;;;;;;;;;5075633;28;19908;-87
2022/01/29 10:10:14;;;;;;;;;;;;;;;;;;5075569;28;20346;-87
2022/01/29 10:12:39;;;;;;;;;;;;;;;;;;5075583;28;20002;-87
2022/01/29 10:15:04;;;;;;;;;;;;;;;;;;5074669;28;20015;-86
2022/01/29 10:17:29;;;;;;;;;;;;;;;;;;5093494;28;19908;-87
2022/01/29 10:19:55;;;;;;;;;;;;;;;;;;5075285;28;19912;-87
2022/01/29 10:22:20;;;;;;;;;;;;;;;;;;5075486;28;19960;-87
2022/01/29 10:24:45;;;;;;;;;;;;;;;;;;5075216;28;20002;-87
2022/01/29 10:27:10;;;;;;;;;;;;;;;;;;5075199;28;20359;-86
2022/01/29 10:29:35;;;;;;;;;;;;;;;;;;5075070;28;20015;-86
2022/01/29 10:32:02;;;;;;;;;;;;;;;;;;5093473;28;19908;-87
2022/01/29 10:34:27;;;;;;;;;;;;;;;;;;5074974;28;19916;-87
2022/01/29 10:36:52;;;;;;;;;;;;;;;;;;5075153;28;19914;-87
2022/01/29 10:39:17;;;;;;;;;;;;;;;;;;5075092;28;19912;-87
2022/01/29 10:41:42;;;;;;;;;;;;;;;;;;5075506;28;19908;-87
2022/01/29 10:44:20;;;;;;;;;;;;;;;;;;5074590;28;20309;-87
2022/01/29 10:46:45;;;;;;;;;;;;;;;;;;5074802;28;20295;-87
2022/01/29 10:49:10;;;;;;;;;;;;;;;;;;5074916;28;19908;-86
2022/01/29 10:51:35;;;;;;;;;;;;;;;;;;5075161;28;19961;-86
2022/01/29 10:54:00;;;;;;;;;;;;;;;;;;5074418;28;20261;-86
2022/01/29 10:56:26;;;;;;;;;;;;;;;;;;5098055;28;19999;-86
2022/01/29 10:58:53;;;;;;;;;;;;;;;;;;5093669;28;19963;-87
2022/01/29 11:01:19;;;;;;;;;;;;;;;;;;5079808;28;20348;-86
2022/01/29 11:03:44;;;;;;;;;;;;;;;;;;5077710;28;19946;-86
2022/01/29 11:06:09;;;;;;;;;;;;;;;;;;5076896;28;20007;-86
2022/01/29 11:08:34;;;;;;;;;;;;;;;;;;5077561;28;19919;-86
2022/01/29 11:10:59;;;;;;;;;;;;;;;;;;5078174;28;20309;-87
2022/01/29 11:13:25;;;;;;;;;;;;;;;;;;5077503;28;19919;-86
2022/01/29 11:15:50;;;;;;;;;;;;;;;;;;5078189;28;19912;-86
2022/01/29 11:18:15;;;;;;;;;;;;;;;;;;5077570;28;20298;-86
2022/01/29 11:20:40;;;;;;;;;;;;;;;;;;5072924;28;19916;-85
2022/01/29 11:23:05;;;;;;;;;;;;;;;;;;5078242;28;19915;-82
2022/01/29 11:25:31;;;;;;;;;;;;;;;;;;5095549;28;19961;-83
2022/01/29 11:27:57;;;;;;;;;;;;;;;;;;5090932;28;19917;-84
2022/01/29 11:30:22;;;;;;;;;;;;;;;;;;5076651;28;19912;-83
2022/01/29 11:32:47;;;;;;;;;;;;;;;;;;5073896;28;20380;-84
2022/01/29 11:35:12;;;;;;;;;;;;;;;;;;5091531;28;19920;-84
2022/01/29 11:37:37;;;;;;;;;;;;;;;;;;5076656;28;19960;-83
2022/01/29 11:40:02;;;;;;;;;;;;;;;;;;5074400;28;20441;-83
2022/01/29 11:42:28;;;;;;;;;;;;;;;;;;5074325;28;19908;-82
2022/01/29 11:44:53;;;;;;;;;;;;;;;;;;5092503;28;20684;-82
2022/01/29 11:47:21;;;;;;;;;;;;;;;;;;5094592;28;19916;-83
2022/01/29 11:49:46;;;;;;;;;;;;;;;;;;5084828;28;19917;-83
2022/01/29 11:52:11;;;;;;;;;;;;;;;;;;5095063;28;20277;-83
2022/01/29 11:54:36;;;;;;;;;;;;;;;;;;5077336;28;19923;-83
2022/01/29 11:57:01;;;;;;;;;;;;;;;;;;5093823;28;19908;-85
2022/01/29 11:59:27;;;;;;;;;;;;;;;;;;5076328;28;19916;-84
2022/01/29 12:01:52;;;;;;;;;;;;;;;;;;5058385;28;20265;-84
2022/01/29 12:04:17;;;;;;;;;;;;;;;;;;5073795;28;20356;-85
2022/01/29 12:06:43;;;;;;;;;;;;;;;;;;5078747;28;20002;-84
2022/01/29 12:09:08;;;;;;;;;;;;;;;;;;5076352;28;20447;-83
2022/01/29 12:11:34;;;;;;;;;;;;;;;;;;5076898;28;19908;-87
2022/01/29 12:13:59;;;;;;;;;;;;;;;;;;5095531;28;20007;-86
2022/01/29 12:16:24;;;;;;;;;;;;;;;;;;5077112;28;19922;-84
2022/01/29 12:18:49;;;;;;;;;;;;;;;;;;5076647;28;19986;-88
2022/01/29 12:21:14;;;;;;;;;;;;;;;;;;5094485;28;19919;-87
2022/01/29 12:23:39;;;;;;;;;;;;;;;;;;5076913;28;19991;-88
2022/01/29 12:26:05;;;;;;;;;;;;;;;;;;5077084;28;20418;-87
2022/01/29 12:28:30;;;;;;;;;;;;;;;;;;5065967;28;19963;-87
2022/01/29 12:30:55;;;;;;;;;;;;;;;;;;5084501;28;20006;-90
2022/01/29 12:33:20;;;;;;;;;;;;;;;;;;5095087;28;19912;-87
2022/01/29 12:35:45;;;;;;;;;;;;;;;;;;5077153;28;19916;-87
2022/01/29 12:38:11;;;;;;;;;;;;;;;;;;5092522;28;19912;-87
2022/01/29 12:40:39;;;;;;;;;;;;;;;;;;5079614;28;20291;-87
2022/01/29 12:43:10;;;;;;;;;;;;;;;;;;5078876;28;19920;-87
2022/01/29 12:45:35;;;;;;;;;;;;;;;;;;5077330;28;19991;-88
2022/01/29 12:48:01;;;;;;;;;;;;;;;;;;5063438;28;19940;-87
2022/01/29 12:50:26;;;;;;;;;;;;;;;;;;5098273;28;20451;-88
2022/01/29 12:52:51;;;;;;;;;;;;;;;;;;5077077;28;20398;-87
2022/01/29 12:55:16;;;;;;;;;;;;;;;;;;5095201;28;20014;-87
2022/01/29 12:57:41;;;;;;;;;;;;;;;;;;5083885;28;19908;-87
2022/01/29 13:00:06;;;;;;;;;;;;;;;;;;5099050;28;20333;-88
2022/01/29 13:02:31;;;;;;;;;;;;;;;;;;5095224;28;19909;-87
2022/01/29 13:04:56;;;;;;;;;;;;;;;;;;5093996;28;19920;-88
2022/01/29 13:07:21;;;;;;;;;;;;;;;;;;5090515;28;19931;-87
2022/01/29 13:09:46;;;;;;;;;;;;;;;;;;5092744;28;19958;-87
2022/01/29 13:12:12;;;;;;;;;;;;;;;;;;5061949;28;20011;-87
2022/01/29 13:14:37;;;;;;;;;;;;;;;;;;5106644;28;20371;-87
2022/01/29 13:17:02;;;;;;;;;;;;;;;;;;5076849;28;19914;-87
2022/01/29 13:19:27;;;;;;;;;;;;;;;;;;5076666;28;19924;-88
2022/01/29 13:21:52;;;;;;;;;;;;;;;;;;5075953;28;19961;-88
2022/01/29 13:24:18;;;;;;;;;;;;;;;;;;5071971;28;19916;-87
2022/01/29 13:26:43;;;;;;;;;;;;;;;;;;5082436;28;19912;-87
2022/01/29 13:29:14;;;;;;;;;;;;;;;;;;5094780;28;19915;-87
2022/01/29 13:31:40;;;;;;;;;;;;;;;;;;5076634;28;19919;-87
2022/01/29 13:34:05;;;;;;;;;;;;;;;;;;5075869;28;19920;-79
2022/01/29 13:36:30;;;;;;;;;;;;;;;;;;5094121;28;19916;-84
2022/01/29 13:38:55;;;;;;;;;;;;;;;;;;5094052;28;19958;-85
2022/01/29 13:41:21;;;;;;;;;;;;;;;;;;5075512;28;20011;-87
2022/01/29 13:43:46;;;;;;;;;;;;;;;;;;5075284;28;20256;-85
2022/01/29 13:46:11;;;;;;;;;;;;;;;;;;5093308;28;19916;-85
2022/01/29 13:48:36;;;;;;;;;;;;;;;;;;5075708;28;19908;-85
2022/01/29 13:51:01;;;;;;;;;;;;;;;;;;5075162;28;20277;-86
2022/01/29 13:53:26;;;;;;;;;;;;;;;;;;5084988;28;19923;-84
2022/01/29 13:55:51;;;;;;;;;;;;;;;;;;5082612;28;19958;-90
2022/01/29 13:58:16;;;;;;;;;;;;;;;;;;5075650;28;19912;-88
2022/01/29 14:00:42;;;;;;;;;;;;;;;;;;5093298;28;19921;-89
2022/01/29 14:03:07;;;;;;;;;;;;;;;;;;5093679;28;19916;-88
2022/01/29 14:05:32;;;;;;;;;;;;;;;;;;5094165;28;20413;-88
2022/01/29 14:07:57;;;;;;;;;;;;;;;;;;5074883;28;19943;-87
2022/01/29 14:10:22;;;;;;;;;;;;;;;;;;5092679;28;19950;-87
2022/01/29 14:12:48;;;;;;;;;;;;;;;;;;5068095;28;19924;-87
2022/01/29 14:15:13;;;;;;;;;;;;;;;;;;5074976;28;20372;-90
2022/01/29 14:17:38;;;;;;;;;;;;;;;;;;5066288;28;20356;-90
2022/01/29 14:20:03;;;;;;;;;;;;;;;;;;5084287;28;19908;-91
2022/01/29 14:22:28;;;;;;;;;;;;;;;;;;5055838;28;19915;-90
2022/01/29 14:24:53;;;;;;;;;;;;;;;;;;5079176;28;19915;-90
2022/01/29 14:27:18;;;;;;;;;;;;;;;;;;5078651;28;19934;-90
2022/01/29 14:29:44;;;;;;;;;;;;;;;;;;5075290;28;20398;-90
2022/01/29 14:32:09;;;;;;;;;;;;;;;;;;5093453;28;19918;-91
2022/01/29 14:34:34;;;;;;;;;;;;;;;;;;5101722;28;19973;-91
2022/01/29 14:36:59;;;;;;;;;;;;;;;;;;5079424;28;20351;-90
2022/01/29 14:39:24;;;;;;;;;;;;;;;;;;5079117;28;20308;-90
2022/01/29 14:41:49;;;;;;;;;;;;;;;;;;5074260;28;19954;-91
2022/01/29 14:44:14;;;;;;;;;;;;;;;;;;5095273;28;19961;-90
2022/01/29 14:46:40;;;;;;;;;;;;;;;;;;5088292;28;19908;-90
2022/01/29 14:49:05;;;;;;;;;;;;;;;;;;5098460;28;20024;-90
2022/01/29 14:51:35;;;;;;;;;;;;;;;;;;5089848;28;20393;-90
2022/01/29 14:54:00;;;;;;;;;;;;;;;;;;5094232;28;20780;-90
2022/01/29 14:56:25;;;;;;;;;;;;;;;;;;5117647;28;19919;-90
2022/01/29 14:58:50;;;;;;;;;;;;;;;;;;5099440;28;19912;-91
2022/01/29 15:01:15;;;;;;;;;;;;;;;;;;5101865;28;19912;-90
2022/01/29 15:03:40;;;;;;;;;;;;;;;;;;5069775;28;19919;-91
2022/01/29 15:06:06;;;;;;;;;;;;;;;;;;5073969;28;19916;-89
2022/01/29 15:08:31;;;;;;;;;;;;;;;;;;5073556;28;19912;-91
2022/01/29 15:10:57;;;;;;;;;;;;;;;;;;5108557;28;19931;-91
2022/01/29 15:13:25;;;;;;;;;;;;;;;;;;5080685;28;20302;-91
2022/01/29 15:15:50;;;;;;;;;;;;;;;;;;5078178;28;20313;-91
2022/01/29 15:18:15;;;;;;;;;;;;;;;;;;5078829;28;19912;-91
2022/01/29 15:20:40;;;;;;;;;;;;;;;;;;5096647;28;19916;-91
2022/01/29 15:23:05;;;;;;;;;;;;;;;;;;5073836;28;19916;-91
2022/01/29 15:25:30;;;;;;;;;;;;;;;;;;5102749;28;19912;-90
2022/01/29 15:27:55;;;;;;;;;;;;;;;;;;5082875;28;19913;-90
2022/01/29 15:30:21;;;;;;;;;;;;;;;;;;5078554;28;19909;-90
2022/01/29 15:32:51;;;;;;;;;;;;;;;;;;5078715;28;19912;-90
2022/01/29 15:35:16;;;;;;;;;;;;;;;;;;5096334;28;20387;-91
2022/01/29 15:37:41;;;;;;;;;;;;;;;;;;5078281;28;19957;-90
2022/01/29 15:40:06;;;;;;;;;;;;;;;;;;5078579;28;19919;-91
2022/01/29 15:42:31;;;;;;;;;;;;;;;;;;5078396;28;19946;-90
2022/01/29 15:44:56;;;;;;;;;;;;;;;;;;5077870;28;19931;-91
2022/01/29 15:47:22;;;;;;;;;;;;;;;;;;5096031;28;19920;-90
2022/01/29 15:49:47;;;;;;;;;;;;;;;;;;5077827;28;19908;-91
2022/01/29 15:52:12;;;;;;;;;;;;;;;;;;5078066;28;20438;-90
2022/01/29 15:54:37;;;;;;;;;;;;;;;;;;5077511;28;19923;-90
2022/01/29 15:57:04;;;;;;;;;;;;;;;;;;5095835;28;19913;-91
2022/01/29 15:59:29;;;;;;;;;;;;;;;;;;5080961;28;19953;-91
2022/01/29 16:01:56;;;;;;;;;;;;;;;;;;5081130;28;19920;-91
2022/01/29 16:04:21;;;;;;;;;;;;;;;;;;5078165;28;19908;-90
2022/01/29 16:06:46;;;;;;;;;;;;;;;;;;5095905;28;19904;-91
2022/01/29 16:09:11;;;;;;;;;;;;;;;;;;5073167;28;19913;-91
2022/01/29 16:11:36;;;;;;;;;;;;;;;;;;5092995;28;19963;-90
2022/01/29 16:14:01;;;;;;;;;;;;;;;;;;5077831;28;19908;-90
2022/01/29 16:16:26;;;;;;;;;;;;;;;;;;5095210;28;19912;-90
2022/01/29 16:18:51;;;;;;;;;;;;;;;;;;5114359;28;19933;-91
2022/01/29 16:21:16;;;;;;;;;;;;;;;;;;5078679;28;20028;-91
2022/01/29 16:23:42;;;;;;;;;;;;;;;;;;5095592;28;19957;-90
2022/01/29 16:26:07;;;;;;;;;;;;;;;;;;5095474;28;19934;-90
2022/01/29 16:28:32;;;;;;;;;;;;;;;;;;5062970;28;19919;-90
2022/01/29 16:30:57;;;;;;;;;;;;;;;;;;5057350;28;19916;-90
2022/01/29 16:33:22;;;;;;;;;;;;;;;;;;5056728;28;20416;-89
2022/01/29 16:35:47;;;;;;;;;;;;;;;;;;5060405;28;19926;-89
2022/01/29 16:38:12;;;;;;;;;;;;;;;;;;5072298;28;19913;-89
2022/01/29 16:40:38;;;;;;;;;;;;;;;;;;5079898;28;19908;-90
2022/01/29 16:43:03;;;;;;;;;;;;;;;;;;5094387;28;20335;-89